Time;durP1;ratioP1;P1;durP2;ratioP2;P2;SDS_P1;SDS_P2;PMS_P1;PMS_P2;Temp;Humidity;BMP_temperature;BMP_pressure;BME280_temperature;BME280_humidity;BME280_pressure;Samples;Min_cycle;Max_cycle;Signal;HPM_P1;HPM_P2
2021/01/18 16:55:25;;;;;;;21.30;3.97;;;5.10;99.90;;;;;;8317065;28;20893;-68
2021/01/18 16:59:28;;;;;;;22.92;3.30;;;5.20;99.90;;;;;;8275118;28;20038;-69
2021/01/18 17:03:30;;;;;;;18.93;3.80;;;5.10;99.90;;;;;;8274259;28;20073;-68
2021/01/18 17:07:31;;;;;;;23.48;4.70;;;5.20;99.90;;;;;;8266487;28;20737;-69
2021/01/18 17:11:33;;;;;;;21.20;3.93;;;5.30;99.90;;;;;;8284582;28;20061;-69
2021/01/18 17:15:34;;;;;;;22.83;4.20;;;5.20;99.90;;;;;;8254956;28;20471;-69
2021/01/18 17:19:36;;;;;;;18.87;2.97;;;5.40;99.90;;;;;;8276299;28;20475;-69
2021/01/18 17:23:39;;;;;;;18.37;3.37;;;5.40;99.90;;;;;;8256671;28;20108;-70
2021/01/18 17:27:40;;;;;;;28.42;4.20;;;5.20;99.90;;;;;;8268549;28;20061;-68
2021/01/18 17:31:42;;;;;;;25.00;4.03;;;5.50;99.90;;;;;;8274210;28;20057;-70
2021/01/18 17:39:21;;;;;;;17.42;4.50;;;4.90;99.90;;;;;;8281573;27;20623;-68
2021/01/18 17:43:23;;;;;;;26.43;3.80;;;5.00;99.90;;;;;;8274193;28;20045;-70
2021/01/18 17:47:24;;;;;;;16.33;3.27;;;5.00;99.90;;;;;;8277680;28;20423;-68
2021/01/18 17:51:28;;;;;;;24.45;4.20;;;5.00;99.90;;;;;;8271977;28;20683;-69
2021/01/18 17:55:29;;;;;;;18.80;3.03;;;5.00;99.90;;;;;;8279085;28;20112;-69
2021/01/18 17:59:30;;;;;;;24.13;4.07;;;5.00;99.90;;;;;;8251927;28;20204;-70
2021/01/18 18:03:32;;;;;;;23.13;4.27;;;4.90;99.90;;;;;;8282180;28;20479;-68
2021/01/18 18:07:34;;;;;;;19.25;4.63;;;4.90;99.90;;;;;;8271067;28;20050;-68
2021/01/18 18:11:36;;;;;;;;;;;4.90;99.90;;;;;;8270729;28;20058;-70
2021/01/18 18:15:38;;;;;;;22.87;4.33;;;4.90;99.90;;;;;;8258127;28;19929;-70
2021/01/18 18:19:39;;;;;;;20.05;3.15;;;4.90;99.90;;;;;;8257617;28;20049;-70
2021/01/18 18:23:41;;;;;;;23.50;3.77;;;4.90;99.90;;;;;;8278940;28;20111;-70
2021/01/18 18:27:44;;;;;;;22.80;4.23;;;4.90;99.90;;;;;;8267469;28;20096;-69
2021/01/18 18:31:47;;;;;;;16.95;3.15;;;4.90;99.90;;;;;;8266848;28;20069;-69
2021/01/18 18:35:52;;;;;;;14.15;2.45;;;4.90;99.90;;;;;;8257260;28;20081;-69
2021/01/18 18:39:54;;;;;;;14.03;2.27;;;4.90;99.90;;;;;;8250663;28;20038;-69
2021/01/18 18:43:55;;;;;;;8.53;1.83;;;4.80;99.90;;;;;;8267672;28;20896;-70
2021/01/18 18:47:57;;;;;;;9.53;2.77;;;4.80;99.90;;;;;;8256174;28;20299;-70
2021/01/18 18:52:00;;;;;;;10.65;1.65;;;6.10;99.90;;;;;;8247812;28;20132;-69
2021/01/18 18:56:03;;;;;;;10.93;1.90;;;4.70;99.90;;;;;;8242500;28;20104;-70
2021/01/18 19:00:07;;;;;;;7.90;2.03;;;4.60;99.90;;;;;;8225048;28;20107;-70
2021/01/18 19:04:09;;;;;;;9.75;2.60;;;4.60;99.90;;;;;;8255369;28;20120;-70
2021/01/18 19:08:10;;;;;;;13.57;3.00;;;4.50;99.90;;;;;;8247371;28;20088;-69
2021/01/18 19:12:12;;;;;;;13.77;3.80;;;4.50;99.90;;;;;;8250177;28;20054;-70
2021/01/18 19:16:13;;;;;;;22.40;4.30;;;4.50;99.90;;;;;;8248783;28;20046;-70
2021/01/18 19:20:16;;;;;;;16.00;3.33;;;4.50;99.90;;;;;;8232585;28;20042;-70
2021/01/18 19:24:18;;;;;;;16.35;4.03;;;4.40;99.90;;;;;;8230306;28;20758;-70
2021/01/18 19:28:20;;;;;;;13.27;3.30;;;4.40;99.90;;;;;;8241625;28;20299;-70
2021/01/18 19:32:21;;;;;;;18.20;3.27;;;4.40;99.90;;;;;;8259281;28;20112;-69
2021/01/18 19:36:26;;;;;;;15.93;3.60;;;4.30;99.90;;;;;;8240736;28;20728;-70
2021/01/18 19:40:27;;;;;;;13.85;3.35;;;4.20;99.90;;;;;;8240341;28;20444;-69
2021/01/18 19:44:31;;;;;;;8.87;1.80;;;4.20;99.90;;;;;;8222345;28;20050;-70
2021/01/18 19:48:34;;;;;;;11.73;2.25;;;4.20;99.90;;;;;;8249127;28;21251;-74
2021/01/18 19:52:40;;;;;;;10.93;1.55;;;4.10;99.90;;;;;;8246769;28;20649;-73
2021/01/18 19:56:41;;;;;;;10.65;1.50;;;4.10;99.90;;;;;;8249038;28;20151;-72
2021/01/18 20:00:44;;;;;;;9.27;1.90;;;4.10;99.90;;;;;;8231489;28;20116;-72
2021/01/18 20:04:45;;;;;;;9.65;1.75;;;4.10;99.90;;;;;;8249087;28;20165;-74
2021/01/18 20:08:47;;;;;;;6.90;1.47;;;4.00;99.90;;;;;;8251226;28;20424;-73
2021/01/18 20:12:48;;;;;;;8.83;1.43;;;4.00;99.90;;;;;;8254268;28;20518;-73
2021/01/18 20:16:50;;;;;;;12.75;2.50;;;3.90;99.90;;;;;;8247304;28;20050;-74
2021/01/18 20:20:52;;;;;;;13.07;2.10;;;3.90;99.90;;;;;;8232798;28;20062;-73
2021/01/18 20:24:56;;;;;;;8.82;1.77;;;3.80;99.90;;;;;;8248931;28;20599;-74
2021/01/18 20:29:01;;;;;;;13.32;2.17;;;3.80;99.90;;;;;;8256431;28;20050;-74
2021/01/18 20:33:04;;;;;;;9.57;2.00;;;3.80;99.90;;;;;;8248783;28;20042;-73
2021/01/18 20:37:05;;;;;;;13.52;2.13;;;3.70;99.90;;;;;;8249686;28;20058;-73
2021/01/18 20:41:07;;;;;;;8.03;1.70;;;3.70;99.90;;;;;;8244569;28;20050;-73
2021/01/18 20:45:09;;;;;;;7.95;1.60;;;3.80;99.90;;;;;;8209264;28;20054;-73
2021/01/18 20:49:11;;;;;;;15.45;2.40;;;3.70;99.90;;;;;;8224447;28;20062;-73
2021/01/18 20:53:21;;;;;;;7.55;1.40;;;3.70;99.90;;;;;;8217000;28;20434;-73
2021/01/18 20:57:23;;;;;;;9.07;2.08;;;3.60;99.90;;;;;;8212143;28;20035;-73
2021/01/18 21:01:25;;;;;;;11.73;2.57;;;3.60;99.90;;;;;;8218318;28;20046;-72
2021/01/18 21:05:27;;;;;;;12.82;2.75;;;3.50;99.90;;;;;;8238266;28;20049;-72
2021/01/18 21:09:28;;;;;;;12.37;2.40;;;3.50;99.90;;;;;;8251535;28;20054;-72
2021/01/18 21:13:30;;;;;;;23.08;3.25;;;3.50;99.90;;;;;;8252228;28;20050;-73
2021/01/18 21:17:36;;;;;;;13.25;1.80;;;3.40;99.90;;;;;;8232221;28;20556;-73
2021/01/18 21:21:38;;;;;;;13.95;2.08;;;3.50;99.90;;;;;;8232356;28;20054;-74
2021/01/18 21:25:39;;;;;;;15.40;1.90;;;3.40;99.90;;;;;;8257861;28;20263;-73
2021/01/18 21:29:41;;;;;;;17.53;2.50;;;3.60;99.90;;;;;;8248226;28;20046;-74
2021/01/18 21:33:42;;;;;;;16.40;1.80;;;3.40;99.90;;;;;;8229372;28;20117;-72
2021/01/18 21:37:44;;;;;;;16.45;1.95;;;3.40;99.90;;;;;;8248343;28;20807;-72
2021/01/18 21:41:45;;;;;;;14.00;1.70;;;3.80;99.90;;;;;;8239445;28;20396;-73
2021/01/18 21:45:47;;;;;;;14.77;2.07;;;3.30;99.90;;;;;;8243996;28;20121;-72
2021/01/18 21:49:49;;;;;;;17.60;2.00;;;3.30;99.90;;;;;;8234799;28;20064;-72
2021/01/18 21:53:50;;;;;;;17.40;2.20;;;3.30;99.90;;;;;;8213667;28;20050;-73
2021/01/18 21:57:52;;;;;;;15.67;2.30;;;3.30;99.90;;;;;;8244759;28;20483;-73
2021/01/18 22:02:00;;;;;;;13.38;1.70;;;3.30;99.90;;;;;;8259371;28;20336;-72
2021/01/18 22:06:01;;;;;;;9.45;1.17;;;3.40;99.90;;;;;;8249844;28;20479;-73
2021/01/18 22:10:06;;;;;;;10.07;1.37;;;3.40;99.90;;;;;;8223012;28;20088;-72
2021/01/18 22:14:07;;;;;;;10.02;2.03;;;3.40;99.90;;;;;;8247637;28;20467;-72
2021/01/18 22:18:12;;;;;;;12.10;2.00;;;3.40;99.90;;;;;;8252160;28;20073;-72
2021/01/18 22:22:13;;;;;;;7.38;1.50;;;3.50;99.90;;;;;;8245438;28;20488;-73
2021/01/18 22:26:18;;;;;;;15.60;2.33;;;3.50;99.90;;;;;;8249493;28;20061;-72
2021/01/18 22:30:20;;;;;;;13.15;1.67;;;3.50;99.90;;;;;;8243061;28;21303;-72
2021/01/18 22:34:22;;;;;;;17.77;2.40;;;3.50;99.90;;;;;;8237085;28;20105;-72
2021/01/18 22:38:24;;;;;;;18.38;3.65;;;3.50;99.90;;;;;;8259404;28;20066;-72
2021/01/18 22:42:25;;;;;;;16.23;2.50;;;3.70;99.90;;;;;;8221550;28;20101;-72
2021/01/18 22:46:27;;;;;;;18.07;2.30;;;3.60;99.90;;;;;;8217745;28;20058;-72
2021/01/18 22:50:28;;;;;;;19.67;2.17;;;3.50;99.90;;;;;;8216524;28;20049;-73
2021/01/18 22:54:29;;;;;;;13.67;2.33;;;3.60;99.90;;;;;;8221113;28;20435;-73
2021/01/18 22:58:31;;;;;;;18.13;2.33;;;3.60;99.90;;;;;;8246535;28;20061;-73
2021/01/18 23:02:32;;;;;;;15.77;2.00;;;3.60;99.90;;;;;;8249078;28;20498;-74
2021/01/18 23:06:34;;;;;;;24.13;2.10;;;4.10;99.90;;;;;;8246447;28;20042;-73
2021/01/18 23:10:35;;;;;;;13.48;2.13;;;3.60;99.90;;;;;;8253041;28;20060;-73
2021/01/18 23:14:36;;;;;;;10.77;1.80;;;3.60;99.90;;;;;;8236457;28;20062;-73
2021/01/18 23:18:39;;;;;;;15.38;2.17;;;3.60;99.90;;;;;;8244346;28;20050;-74
2021/01/18 23:22:42;;;;;;;13.10;2.10;;;3.80;99.90;;;;;;8239838;28;20053;-73
2021/01/18 23:26:43;;;;;;;20.20;2.97;;;3.60;99.90;;;;;;8240430;28;20415;-74
2021/01/18 23:30:45;;;;;;;13.50;1.67;;;3.60;99.90;;;;;;8255184;28;20038;-73
2021/01/18 23:34:47;;;;;;;17.60;3.30;;;3.60;99.90;;;;;;8233685;28;20042;-74
2021/01/18 23:38:48;;;;;;;19.67;2.93;;;3.60;99.90;;;;;;8237807;28;20483;-73
2021/01/18 23:42:50;;;;;;;13.70;1.95;;;3.70;99.90;;;;;;8241877;28;20049;-74
2021/01/18 23:46:51;;;;;;;20.65;2.53;;;3.70;99.90;;;;;;8245794;28;20609;-73
2021/01/18 23:50:53;;;;;;;14.43;2.20;;;3.70;99.90;;;;;;8253571;28;20547;-74
2021/01/18 23:54:54;;;;;;;22.98;2.58;;;3.80;99.90;;;;;;8243532;28;20532;-75
2021/01/18 23:58:55;;;;;;;16.30;2.33;;;3.80;99.90;;;;;;8245228;28;20121;-74
